sensor_id;sensor_type;location;lat;lon;timestamp;P1;durP1;ratioP1;P2;durP2;ratioP2
75894;SDS011;64573;50.328;15.014;2024-03-23T00:54:40;16.73;;;9.57;;
75894;SDS011;64573;50.328;15.014;2024-03-23T00:57:06;15.88;;;8.77;;
75894;SDS011;64573;50.328;15.014;2024-03-23T00:59:31;16.85;;;8.95;;
75894;SDS011;64573;50.328;15.014;2024-03-23T01:01:56;15.50;;;9.23;;
75894;SDS011;64573;50.328;15.014;2024-03-23T01:04:22;18.10;;;9.38;;
75894;SDS011;64573;50.328;15.014;2024-03-23T01:06:47;25.48;;;10.27;;
75894;SDS011;64573;50.328;15.014;2024-03-23T01:09:12;15.85;;;8.40;;
75894;SDS011;64573;50.328;15.014;2024-03-23T01:11:38;16.08;;;9.05;;
75894;SDS011;64573;50.328;15.014;2024-03-23T01:14:04;15.15;;;8.75;;
75894;SDS011;64573;50.328;15.014;2024-03-23T01:16:30;16.73;;;8.52;;
75894;SDS011;64573;50.328;15.014;2024-03-23T01:18:55;21.27;;;10.93;;
75894;SDS011;64573;50.328;15.014;2024-03-23T01:21:20;15.75;;;8.88;;
75894;SDS011;64573;50.328;15.014;2024-03-23T01:23:46;15.88;;;9.35;;
75894;SDS011;64573;50.328;15.014;2024-03-23T01:26:11;18.73;;;9.63;;
75894;SDS011;64573;50.328;15.014;2024-03-23T01:28:37;22.50;;;10.05;;
75894;SDS011;64573;50.328;15.014;2024-03-23T01:31:02;21.40;;;10.50;;
75894;SDS011;64573;50.328;15.014;2024-03-23T01:33:28;14.18;;;7.97;;
75894;SDS011;64573;50.328;15.014;2024-03-23T01:35:53;17.42;;;8.77;;
75894;SDS011;64573;50.328;15.014;2024-03-23T01:38:18;14.35;;;8.50;;
75894;SDS011;64573;50.328;15.014;2024-03-23T01:40:44;17.58;;;9.00;;
75894;SDS011;64573;50.328;15.014;2024-03-23T01:43:09;15.70;;;8.68;;
75894;SDS011;64573;50.328;15.014;2024-03-23T01:45:35;15.35;;;8.13;;
75894;SDS011;64573;50.328;15.014;2024-03-23T01:48:00;14.80;;;8.23;;
75894;SDS011;64573;50.328;15.014;2024-03-23T01:50:26;13.57;;;7.68;;
75894;SDS011;64573;50.328;15.014;2024-03-23T01:52:53;17.00;;;8.93;;
75894;SDS011;64573;50.328;15.014;2024-03-23T01:55:19;15.90;;;7.70;;
75894;SDS011;64573;50.328;15.014;2024-03-23T01:57:44;15.10;;;8.88;;
75894;SDS011;64573;50.328;15.014;2024-03-23T02:00:10;15.82;;;7.68;;
75894;SDS011;64573;50.328;15.014;2024-03-23T02:02:41;16.67;;;8.27;;
75894;SDS011;64573;50.328;15.014;2024-03-23T02:05:10;14.95;;;7.85;;
75894;SDS011;64573;50.328;15.014;2024-03-23T02:07:37;18.92;;;8.35;;
75894;SDS011;64573;50.328;15.014;2024-03-23T02:10:04;14.80;;;7.72;;
75894;SDS011;64573;50.328;15.014;2024-03-23T02:12:31;19.17;;;8.82;;
75894;SDS011;64573;50.328;15.014;2024-03-23T02:14:56;15.27;;;8.40;;
75894;SDS011;64573;50.328;15.014;2024-03-23T02:17:21;16.35;;;8.07;;
75894;SDS011;64573;50.328;15.014;2024-03-23T02:19:47;15.27;;;7.68;;
75894;SDS011;64573;50.328;15.014;2024-03-23T02:22:12;18.92;;;9.23;;
75894;SDS011;64573;50.328;15.014;2024-03-23T02:24:37;23.65;;;9.75;;
75894;SDS011;64573;50.328;15.014;2024-03-23T02:27:03;20.05;;;9.55;;
75894;SDS011;64573;50.328;15.014;2024-03-23T02:29:28;18.27;;;9.88;;
75894;SDS011;64573;50.328;15.014;2024-03-23T02:31:53;21.67;;;10.20;;
75894;SDS011;64573;50.328;15.014;2024-03-23T02:34:19;16.65;;;8.85;;
75894;SDS011;64573;50.328;15.014;2024-03-23T02:36:44;20.48;;;8.95;;
75894;SDS011;64573;50.328;15.014;2024-03-23T02:39:09;17.20;;;8.57;;
75894;SDS011;64573;50.328;15.014;2024-03-23T02:41:35;16.92;;;8.55;;
75894;SDS011;64573;50.328;15.014;2024-03-23T02:44:01;16.67;;;8.82;;
75894;SDS011;64573;50.328;15.014;2024-03-23T02:46:27;19.23;;;8.65;;
75894;SDS011;64573;50.328;15.014;2024-03-23T02:48:52;15.68;;;7.95;;
75894;SDS011;64573;50.328;15.014;2024-03-23T02:51:17;15.48;;;8.52;;
75894;SDS011;64573;50.328;15.014;2024-03-23T02:53:43;15.85;;;8.50;;
75894;SDS011;64573;50.328;15.014;2024-03-23T02:56:08;15.52;;;8.55;;
75894;SDS011;64573;50.328;15.014;2024-03-23T02:58:33;16.08;;;8.32;;
75894;SDS011;64573;50.328;15.014;2024-03-23T03:00:59;18.10;;;8.93;;
75894;SDS011;64573;50.328;15.014;2024-03-23T03:03:24;14.23;;;7.65;;
75894;SDS011;64573;50.328;15.014;2024-03-23T03:05:56;15.50;;;8.60;;
75894;SDS011;64573;50.328;15.014;2024-03-23T03:08:21;13.65;;;7.82;;
75894;SDS011;64573;50.328;15.014;2024-03-23T03:10:47;15.93;;;8.15;;
75894;SDS011;64573;50.328;15.014;2024-03-23T03:13:12;18.00;;;8.98;;
75894;SDS011;64573;50.328;15.014;2024-03-23T03:15:37;17.27;;;8.38;;
75894;SDS011;64573;50.328;15.014;2024-03-23T03:18:05;18.80;;;8.90;;
75894;SDS011;64573;50.328;15.014;2024-03-23T03:20:31;15.90;;;8.13;;
75894;SDS011;64573;50.328;15.014;2024-03-23T03:22:56;15.10;;;7.95;;
75894;SDS011;64573;50.328;15.014;2024-03-23T03:25:22;17.65;;;9.27;;
75894;SDS011;64573;50.328;15.014;2024-03-23T03:27:47;16.50;;;8.55;;
75894;SDS011;64573;50.328;15.014;2024-03-23T03:30:13;19.42;;;8.90;;
75894;SDS011;64573;50.328;15.014;2024-03-23T03:32:38;18.60;;;8.88;;
75894;SDS011;64573;50.328;15.014;2024-03-23T03:35:03;17.75;;;8.38;;
75894;SDS011;64573;50.328;15.014;2024-03-23T03:37:29;18.23;;;8.95;;
75894;SDS011;64573;50.328;15.014;2024-03-23T03:39:55;18.27;;;9.25;;
75894;SDS011;64573;50.328;15.014;2024-03-23T03:42:20;15.82;;;8.85;;
75894;SDS011;64573;50.328;15.014;2024-03-23T03:44:45;16.63;;;8.65;;
75894;SDS011;64573;50.328;15.014;2024-03-23T03:47:11;17.38;;;8.73;;
75894;SDS011;64573;50.328;15.014;2024-03-23T03:49:36;16.05;;;8.00;;
75894;SDS011;64573;50.328;15.014;2024-03-23T03:52:01;17.55;;;8.70;;
75894;SDS011;64573;50.328;15.014;2024-03-23T03:54:27;19.20;;;8.98;;
75894;SDS011;64573;50.328;15.014;2024-03-23T03:56:52;18.10;;;8.48;;
75894;SDS011;64573;50.328;15.014;2024-03-23T03:59:18;18.80;;;8.90;;
75894;SDS011;64573;50.328;15.014;2024-03-23T04:01:43;18.23;;;8.82;;
75894;SDS011;64573;50.328;15.014;2024-03-23T04:04:08;20.02;;;9.32;;
75894;SDS011;64573;50.328;15.014;2024-03-23T04:06:34;18.88;;;8.75;;
75894;SDS011;64573;50.328;15.014;2024-03-23T04:09:00;21.80;;;10.43;;
75894;SDS011;64573;50.328;15.014;2024-03-23T04:11:25;19.05;;;9.80;;
75894;SDS011;64573;50.328;15.014;2024-03-23T04:13:51;18.70;;;8.95;;
75894;SDS011;64573;50.328;15.014;2024-03-23T04:16:29;19.60;;;10.27;;
75894;SDS011;64573;50.328;15.014;2024-03-23T04:18:55;19.15;;;9.93;;
75894;SDS011;64573;50.328;15.014;2024-03-23T04:21:21;22.27;;;11.25;;
75894;SDS011;64573;50.328;15.014;2024-03-23T04:23:47;25.63;;;12.00;;
75894;SDS011;64573;50.328;15.014;2024-03-23T04:26:12;21.58;;;10.43;;
75894;SDS011;64573;50.328;15.014;2024-03-23T04:28:38;18.40;;;9.63;;
75894;SDS011;64573;50.328;15.014;2024-03-23T04:31:03;22.45;;;9.73;;
75894;SDS011;64573;50.328;15.014;2024-03-23T04:33:29;22.15;;;10.55;;
75894;SDS011;64573;50.328;15.014;2024-03-23T04:35:54;30.92;;;15.63;;
75894;SDS011;64573;50.328;15.014;2024-03-23T04:38:20;32.22;;;17.52;;
75894;SDS011;64573;50.328;15.014;2024-03-23T04:43:14;19.48;;;9.77;;
75894;SDS011;64573;50.328;15.014;2024-03-23T04:45:39;18.67;;;9.50;;
75894;SDS011;64573;50.328;15.014;2024-03-23T04:48:05;18.27;;;8.77;;
75894;SDS011;64573;50.328;15.014;2024-03-23T04:50:30;16.00;;;8.60;;
75894;SDS011;64573;50.328;15.014;2024-03-23T04:52:56;16.25;;;9.07;;
75894;SDS011;64573;50.328;15.014;2024-03-23T04:55:21;17.52;;;8.52;;
75894;SDS011;64573;50.328;15.014;2024-03-23T04:57:47;13.65;;;7.80;;
75894;SDS011;64573;50.328;15.014;2024-03-23T05:00:13;21.58;;;9.50;;
75894;SDS011;64573;50.328;15.014;2024-03-23T05:02:44;19.90;;;10.48;;
75894;SDS011;64573;50.328;15.014;2024-03-23T05:05:10;18.58;;;9.35;;
75894;SDS011;64573;50.328;15.014;2024-03-23T05:07:35;15.05;;;8.45;;
75894;SDS011;64573;50.328;15.014;2024-03-23T05:10:01;18.42;;;9.10;;
75894;SDS011;64573;50.328;15.014;2024-03-23T05:12:26;17.23;;;8.23;;
75894;SDS011;64573;50.328;15.014;2024-03-23T05:14:51;15.75;;;8.10;;
75894;SDS011;64573;50.328;15.014;2024-03-23T05:17:17;15.32;;;8.27;;
75894;SDS011;64573;50.328;15.014;2024-03-23T05:19:43;17.95;;;9.25;;
75894;SDS011;64573;50.328;15.014;2024-03-23T05:22:09;15.05;;;8.18;;
75894;SDS011;64573;50.328;15.014;2024-03-23T05:24:34;12.77;;;7.60;;
75894;SDS011;64573;50.328;15.014;2024-03-23T05:27:00;12.73;;;7.55;;
75894;SDS011;64573;50.328;15.014;2024-03-23T05:29:25;14.48;;;7.80;;
75894;SDS011;64573;50.328;15.014;2024-03-23T05:31:51;14.65;;;7.10;;
75894;SDS011;64573;50.328;15.014;2024-03-23T05:34:17;16.83;;;8.00;;
75894;SDS011;64573;50.328;15.014;2024-03-23T05:36:43;13.18;;;7.20;;
75894;SDS011;64573;50.328;15.014;2024-03-23T05:39:08;14.32;;;6.85;;
75894;SDS011;64573;50.328;15.014;2024-03-23T05:41:33;23.92;;;7.15;;
75894;SDS011;64573;50.328;15.014;2024-03-23T05:44:01;11.93;;;6.93;;
75894;SDS011;64573;50.328;15.014;2024-03-23T05:46:26;12.25;;;7.03;;
75894;SDS011;64573;50.328;15.014;2024-03-23T05:48:52;12.38;;;6.95;;
75894;SDS011;64573;50.328;15.014;2024-03-23T05:51:17;18.70;;;9.10;;
75894;SDS011;64573;50.328;15.014;2024-03-23T05:53:43;15.60;;;7.60;;
75894;SDS011;64573;50.328;15.014;2024-03-23T05:56:08;16.67;;;8.30;;
75894;SDS011;64573;50.328;15.014;2024-03-23T05:58:34;15.07;;;8.10;;
75894;SDS011;64573;50.328;15.014;2024-03-23T06:03:29;14.00;;;7.93;;
75894;SDS011;64573;50.328;15.014;2024-03-23T06:05:55;14.23;;;7.65;;
75894;SDS011;64573;50.328;15.014;2024-03-23T06:08:21;12.38;;;7.03;;
75894;SDS011;64573;50.328;15.014;2024-03-23T06:10:47;11.35;;;6.15;;
75894;SDS011;64573;50.328;15.014;2024-03-23T06:13:13;13.27;;;7.28;;
75894;SDS011;64573;50.328;15.014;2024-03-23T06:15:39;13.70;;;7.07;;
75894;SDS011;64573;50.328;15.014;2024-03-23T06:18:04;11.85;;;6.95;;
75894;SDS011;64573;50.328;15.014;2024-03-23T06:20:30;14.05;;;7.05;;
75894;SDS011;64573;50.328;15.014;2024-03-23T06:22:56;11.18;;;6.82;;
75894;SDS011;64573;50.328;15.014;2024-03-23T06:25:21;15.38;;;7.05;;
75894;SDS011;64573;50.328;15.014;2024-03-23T06:27:46;11.48;;;6.75;;
75894;SDS011;64573;50.328;15.014;2024-03-23T06:30:12;11.70;;;6.50;;
75894;SDS011;64573;50.328;15.014;2024-03-23T06:32:38;12.15;;;6.68;;
75894;SDS011;64573;50.328;15.014;2024-03-23T06:35:03;12.10;;;6.57;;
75894;SDS011;64573;50.328;15.014;2024-03-23T06:37:33;14.15;;;7.22;;
75894;SDS011;64573;50.328;15.014;2024-03-23T06:39:59;15.07;;;6.82;;
75894;SDS011;64573;50.328;15.014;2024-03-23T06:42:24;15.02;;;6.70;;
75894;SDS011;64573;50.328;15.014;2024-03-23T06:44:49;15.45;;;7.38;;
75894;SDS011;64573;50.328;15.014;2024-03-23T06:47:15;12.43;;;6.55;;
75894;SDS011;64573;50.328;15.014;2024-03-23T06:49:40;13.85;;;7.97;;
75894;SDS011;64573;50.328;15.014;2024-03-23T06:52:05;16.75;;;7.93;;
75894;SDS011;64573;50.328;15.014;2024-03-23T06:54:31;13.57;;;6.90;;
75894;SDS011;64573;50.328;15.014;2024-03-23T06:56:56;13.25;;;7.80;;
75894;SDS011;64573;50.328;15.014;2024-03-23T06:59:21;13.27;;;7.88;;
75894;SDS011;64573;50.328;15.014;2024-03-23T07:01:47;18.13;;;7.93;;
75894;SDS011;64573;50.328;15.014;2024-03-23T07:04:12;13.27;;;7.20;;
75894;SDS011;64573;50.328;15.014;2024-03-23T07:06:44;16.45;;;6.95;;
75894;SDS011;64573;50.328;15.014;2024-03-23T07:09:10;14.88;;;7.38;;
75894;SDS011;64573;50.328;15.014;2024-03-23T07:11:35;13.90;;;6.80;;
75894;SDS011;64573;50.328;15.014;2024-03-23T07:14:01;12.18;;;6.60;;
75894;SDS011;64573;50.328;15.014;2024-03-23T07:16:27;14.55;;;7.10;;
75894;SDS011;64573;50.328;15.014;2024-03-23T07:18:53;12.52;;;6.60;;
75894;SDS011;64573;50.328;15.014;2024-03-23T07:21:18;12.55;;;7.28;;
75894;SDS011;64573;50.328;15.014;2024-03-23T07:23:43;12.88;;;7.40;;
75894;SDS011;64573;50.328;15.014;2024-03-23T07:26:12;16.60;;;7.72;;
75894;SDS011;64573;50.328;15.014;2024-03-23T07:28:37;12.27;;;7.05;;
75894;SDS011;64573;50.328;15.014;2024-03-23T07:31:07;13.18;;;7.28;;
75894;SDS011;64573;50.328;15.014;2024-03-23T07:33:34;10.98;;;6.82;;
75894;SDS011;64573;50.328;15.014;2024-03-23T07:36:01;12.95;;;6.93;;
75894;SDS011;64573;50.328;15.014;2024-03-23T07:38:30;15.82;;;7.57;;
75894;SDS011;64573;50.328;15.014;2024-03-23T07:41:02;12.75;;;6.68;;
75894;SDS011;64573;50.328;15.014;2024-03-23T07:43:31;11.05;;;6.68;;
75894;SDS011;64573;50.328;15.014;2024-03-23T07:48:22;11.90;;;6.95;;
75894;SDS011;64573;50.328;15.014;2024-03-23T07:51:00;11.88;;;6.88;;
75894;SDS011;64573;50.328;15.014;2024-03-23T07:53:25;10.63;;;6.75;;
75894;SDS011;64573;50.328;15.014;2024-03-23T07:55:53;12.20;;;6.00;;
75894;SDS011;64573;50.328;15.014;2024-03-23T07:58:19;11.73;;;7.07;;
75894;SDS011;64573;50.328;15.014;2024-03-23T08:00:45;11.70;;;6.30;;
75894;SDS011;64573;50.328;15.014;2024-03-23T08:03:10;11.45;;;6.32;;
75894;SDS011;64573;50.328;15.014;2024-03-23T08:05:36;11.05;;;6.80;;
75894;SDS011;64573;50.328;15.014;2024-03-23T08:08:01;11.75;;;6.15;;
75894;SDS011;64573;50.328;15.014;2024-03-23T08:10:26;10.20;;;5.43;;
75894;SDS011;64573;50.328;15.014;2024-03-23T08:12:52;9.73;;;5.93;;
75894;SDS011;64573;50.328;15.014;2024-03-23T08:15:17;8.15;;;5.57;;
75894;SDS011;64573;50.328;15.014;2024-03-23T08:17:42;11.32;;;5.47;;
75894;SDS011;64573;50.328;15.014;2024-03-23T08:20:08;10.13;;;5.88;;
75894;SDS011;64573;50.328;15.014;2024-03-23T08:22:33;12.05;;;5.65;;
75894;SDS011;64573;50.328;15.014;2024-03-23T08:24:59;9.65;;;5.57;;
75894;SDS011;64573;50.328;15.014;2024-03-23T08:27:24;10.13;;;5.75;;
75894;SDS011;64573;50.328;15.014;2024-03-23T08:29:49;10.73;;;5.88;;
75894;SDS011;64573;50.328;15.014;2024-03-23T08:32:15;9.55;;;5.65;;
75894;SDS011;64573;50.328;15.014;2024-03-23T08:34:42;8.25;;;5.30;;
75894;SDS011;64573;50.328;15.014;2024-03-23T08:37:07;8.30;;;5.13;;
75894;SDS011;64573;50.328;15.014;2024-03-23T08:39:32;8.93;;;5.30;;
75894;SDS011;64573;50.328;15.014;2024-03-23T08:41:58;8.43;;;5.57;;
75894;SDS011;64573;50.328;15.014;2024-03-23T08:44:23;8.90;;;5.68;;
75894;SDS011;64573;50.328;15.014;2024-03-23T08:46:48;10.18;;;5.80;;
75894;SDS011;64573;50.328;15.014;2024-03-23T08:49:14;9.30;;;5.65;;
75894;SDS011;64573;50.328;15.014;2024-03-23T08:51:39;11.38;;;5.78;;
75894;SDS011;64573;50.328;15.014;2024-03-23T08:54:05;14.45;;;6.03;;
75894;SDS011;64573;50.328;15.014;2024-03-23T08:56:30;10.25;;;5.95;;
75894;SDS011;64573;50.328;15.014;2024-03-23T08:58:55;8.38;;;5.50;;
75894;SDS011;64573;50.328;15.014;2024-03-23T09:01:21;9.50;;;5.70;;
75894;SDS011;64573;50.328;15.014;2024-03-23T09:03:46;8.10;;;5.35;;
75894;SDS011;64573;50.328;15.014;2024-03-23T09:06:12;6.80;;;5.07;;
75894;SDS011;64573;50.328;15.014;2024-03-23T09:08:39;8.25;;;4.50;;
75894;SDS011;64573;50.328;15.014;2024-03-23T09:11:06;6.60;;;4.40;;
75894;SDS011;64573;50.328;15.014;2024-03-23T09:13:33;12.43;;;4.65;;
75894;SDS011;64573;50.328;15.014;2024-03-23T09:15:59;7.30;;;4.50;;
75894;SDS011;64573;50.328;15.014;2024-03-23T09:18:25;6.10;;;4.35;;
75894;SDS011;64573;50.328;15.014;2024-03-23T09:20:50;6.60;;;4.35;;
75894;SDS011;64573;50.328;15.014;2024-03-23T09:23:15;7.20;;;3.88;;
75894;SDS011;64573;50.328;15.014;2024-03-23T09:25:41;6.10;;;3.72;;
75894;SDS011;64573;50.328;15.014;2024-03-23T09:28:07;5.32;;;3.50;;
75894;SDS011;64573;50.328;15.014;2024-03-23T09:30:36;5.32;;;3.30;;
75894;SDS011;64573;50.328;15.014;2024-03-23T09:33:07;3.83;;;2.97;;
75894;SDS011;64573;50.328;15.014;2024-03-23T09:38:00;7.45;;;3.55;;
75894;SDS011;64573;50.328;15.014;2024-03-23T09:40:26;6.05;;;3.83;;
75894;SDS011;64573;50.328;15.014;2024-03-23T09:42:52;6.32;;;3.45;;
75894;SDS011;64573;50.328;15.014;2024-03-23T09:45:19;4.15;;;3.15;;
75894;SDS011;64573;50.328;15.014;2024-03-23T09:47:49;5.35;;;3.35;;
75894;SDS011;64573;50.328;15.014;2024-03-23T09:50:16;4.57;;;3.00;;
75894;SDS011;64573;50.328;15.014;2024-03-23T09:52:42;6.72;;;3.35;;
75894;SDS011;64573;50.328;15.014;2024-03-23T09:55:08;5.18;;;3.33;;
75894;SDS011;64573;50.328;15.014;2024-03-23T09:57:34;6.78;;;3.45;;
75894;SDS011;64573;50.328;15.014;2024-03-23T10:00:00;6.70;;;3.67;;
75894;SDS011;64573;50.328;15.014;2024-03-23T10:02:26;4.05;;;3.08;;
75894;SDS011;64573;50.328;15.014;2024-03-23T10:04:52;5.53;;;3.47;;
75894;SDS011;64573;50.328;15.014;2024-03-23T10:07:18;5.15;;;3.40;;
75894;SDS011;64573;50.328;15.014;2024-03-23T10:09:45;6.10;;;3.17;;
75894;SDS011;64573;50.328;15.014;2024-03-23T10:12:12;8.38;;;3.60;;
75894;SDS011;64573;50.328;15.014;2024-03-23T10:14:41;4.88;;;3.25;;
75894;SDS011;64573;50.328;15.014;2024-03-23T10:17:17;6.32;;;4.03;;
75894;SDS011;64573;50.328;15.014;2024-03-23T10:19:44;7.95;;;4.18;;
75894;SDS011;64573;50.328;15.014;2024-03-23T10:22:12;9.43;;;5.00;;
75894;SDS011;64573;50.328;15.014;2024-03-23T10:24:39;6.78;;;4.28;;
75894;SDS011;64573;50.328;15.014;2024-03-23T10:27:04;5.88;;;4.03;;
75894;SDS011;64573;50.328;15.014;2024-03-23T10:29:30;5.60;;;3.83;;
75894;SDS011;64573;50.328;15.014;2024-03-23T10:32:07;10.00;;;4.20;;
75894;SDS011;64573;50.328;15.014;2024-03-23T10:34:33;9.07;;;4.22;;
75894;SDS011;64573;50.328;15.014;2024-03-23T10:37:00;5.93;;;4.20;;
75894;SDS011;64573;50.328;15.014;2024-03-23T10:39:29;7.70;;;4.82;;
75894;SDS011;64573;50.328;15.014;2024-03-23T10:42:00;6.82;;;4.10;;
75894;SDS011;64573;50.328;15.014;2024-03-23T10:44:27;6.85;;;3.63;;
75894;SDS011;64573;50.328;15.014;2024-03-23T10:47:02;6.25;;;3.40;;
75894;SDS011;64573;50.328;15.014;2024-03-23T10:49:32;5.68;;;3.70;;
75894;SDS011;64573;50.328;15.014;2024-03-23T10:52:05;7.80;;;3.70;;
75894;SDS011;64573;50.328;15.014;2024-03-23T10:54:31;6.38;;;3.63;;
75894;SDS011;64573;50.328;15.014;2024-03-23T10:59:38;5.90;;;3.63;;
75894;SDS011;64573;50.328;15.014;2024-03-23T11:02:04;4.00;;;2.78;;
75894;SDS011;64573;50.328;15.014;2024-03-23T11:04:33;6.63;;;3.17;;
75894;SDS011;64573;50.328;15.014;2024-03-23T11:07:00;5.38;;;2.95;;
75894;SDS011;64573;50.328;15.014;2024-03-23T11:09:39;5.13;;;3.03;;
75894;SDS011;64573;50.328;15.014;2024-03-23T11:14:46;6.10;;;3.28;;
75894;SDS011;64573;50.328;15.014;2024-03-23T11:17:17;4.18;;;2.90;;
75894;SDS011;64573;50.328;15.014;2024-03-23T11:19:43;6.70;;;2.90;;
75894;SDS011;64573;50.328;15.014;2024-03-23T11:22:08;5.57;;;3.38;;
75894;SDS011;64573;50.328;15.014;2024-03-23T11:24:34;5.05;;;2.83;;
75894;SDS011;64573;50.328;15.014;2024-03-23T11:26:59;4.55;;;3.00;;
75894;SDS011;64573;50.328;15.014;2024-03-23T11:29:28;6.10;;;2.92;;
75894;SDS011;64573;50.328;15.014;2024-03-23T11:31:55;5.40;;;2.95;;
75894;SDS011;64573;50.328;15.014;2024-03-23T11:34:21;4.68;;;3.25;;
75894;SDS011;64573;50.328;15.014;2024-03-23T11:36:46;4.10;;;2.75;;
75894;SDS011;64573;50.328;15.014;2024-03-23T11:39:15;5.88;;;2.97;;
75894;SDS011;64573;50.328;15.014;2024-03-23T11:41:48;5.60;;;2.90;;
75894;SDS011;64573;50.328;15.014;2024-03-23T11:44:18;4.80;;;3.20;;
75894;SDS011;64573;50.328;15.014;2024-03-23T11:46:48;5.03;;;3.03;;
75894;SDS011;64573;50.328;15.014;2024-03-23T11:49:24;3.60;;;2.60;;
75894;SDS011;64573;50.328;15.014;2024-03-23T11:51:50;6.50;;;2.90;;
75894;SDS011;64573;50.328;15.014;2024-03-23T11:54:16;5.53;;;3.10;;
75894;SDS011;64573;50.328;15.014;2024-03-23T11:56:58;4.70;;;2.90;;
75894;SDS011;64573;50.328;15.014;2024-03-23T11:59:34;5.22;;;3.08;;
75894;SDS011;64573;50.328;15.014;2024-03-23T12:02:05;5.35;;;3.08;;
75894;SDS011;64573;50.328;15.014;2024-03-23T12:04:40;4.63;;;3.17;;
75894;SDS011;64573;50.328;15.014;2024-03-23T12:09:45;5.22;;;3.75;;
75894;SDS011;64573;50.328;15.014;2024-03-23T12:12:21;5.82;;;4.10;;
75894;SDS011;64573;50.328;15.014;2024-03-23T12:15:05;6.55;;;4.32;;
75894;SDS011;64573;50.328;15.014;2024-03-23T12:17:33;5.05;;;3.80;;
75894;SDS011;64573;50.328;15.014;2024-03-23T12:19:59;6.60;;;4.38;;
75894;SDS011;64573;50.328;15.014;2024-03-23T12:22:25;5.82;;;3.30;;
75894;SDS011;64573;50.328;15.014;2024-03-23T12:24:51;5.40;;;3.42;;
75894;SDS011;64573;50.328;15.014;2024-03-23T12:27:16;4.57;;;3.30;;
75894;SDS011;64573;50.328;15.014;2024-03-23T12:29:42;6.57;;;3.10;;
75894;SDS011;64573;50.328;15.014;2024-03-23T12:32:12;2.95;;;2.03;;
75894;SDS011;64573;50.328;15.014;2024-03-23T12:34:38;2.42;;;1.95;;
75894;SDS011;64573;50.328;15.014;2024-03-23T12:37:04;2.90;;;1.90;;
75894;SDS011;64573;50.328;15.014;2024-03-23T12:39:31;3.20;;;1.90;;
75894;SDS011;64573;50.328;15.014;2024-03-23T12:41:59;2.20;;;1.30;;
75894;SDS011;64573;50.328;15.014;2024-03-23T12:44:28;3.75;;;0.93;;
75894;SDS011;64573;50.328;15.014;2024-03-23T12:46:55;1.30;;;0.93;;
75894;SDS011;64573;50.328;15.014;2024-03-23T12:49:21;0.98;;;0.75;;
75894;SDS011;64573;50.328;15.014;2024-03-23T12:51:54;1.25;;;0.70;;
75894;SDS011;64573;50.328;15.014;2024-03-23T12:54:20;0.75;;;0.52;;
75894;SDS011;64573;50.328;15.014;2024-03-23T12:56:46;0.63;;;0.60;;
75894;SDS011;64573;50.328;15.014;2024-03-23T12:59:12;1.90;;;0.50;;
75894;SDS011;64573;50.328;15.014;2024-03-23T13:01:38;1.45;;;0.60;;
75894;SDS011;64573;50.328;15.014;2024-03-23T13:04:03;1.50;;;0.40;;
75894;SDS011;64573;50.328;15.014;2024-03-23T13:06:29;0.85;;;0.40;;
75894;SDS011;64573;50.328;15.014;2024-03-23T13:08:59;4.25;;;0.50;;
75894;SDS011;64573;50.328;15.014;2024-03-23T13:11:26;0.45;;;0.20;;
75894;SDS011;64573;50.328;15.014;2024-03-23T13:13:51;0.60;;;0.30;;
75894;SDS011;64573;50.328;15.014;2024-03-23T13:16:17;1.77;;;0.30;;
75894;SDS011;64573;50.328;15.014;2024-03-23T13:18:43;0.30;;;0.20;;
75894;SDS011;64573;50.328;15.014;2024-03-23T13:21:08;0.75;;;0.40;;
75894;SDS011;64573;50.328;15.014;2024-03-23T13:23:33;0.32;;;0.32;;
75894;SDS011;64573;50.328;15.014;2024-03-23T13:26:00;0.30;;;0.30;;
75894;SDS011;64573;50.328;15.014;2024-03-23T13:28:26;0.30;;;0.30;;
75894;SDS011;64573;50.328;15.014;2024-03-23T13:30:55;0.22;;;0.20;;
75894;SDS011;64573;50.328;15.014;2024-03-23T13:33:22;1.85;;;0.43;;
75894;SDS011;64573;50.328;15.014;2024-03-23T13:38:21;0.30;;;0.30;;
75894;SDS011;64573;50.328;15.014;2024-03-23T13:40:53;0.38;;;0.35;;
75894;SDS011;64573;50.328;15.014;2024-03-23T13:43:19;0.30;;;0.30;;
75894;SDS011;64573;50.328;15.014;2024-03-23T13:45:45;0.68;;;0.40;;
75894;SDS011;64573;50.328;15.014;2024-03-23T13:48:12;0.63;;;0.50;;
75894;SDS011;64573;50.328;15.014;2024-03-23T13:50:38;0.32;;;0.32;;
75894;SDS011;64573;50.328;15.014;2024-03-23T13:53:03;0.40;;;0.40;;
75894;SDS011;64573;50.328;15.014;2024-03-23T13:55:29;0.55;;;0.30;;
75894;SDS011;64573;50.328;15.014;2024-03-23T13:57:54;0.30;;;0.30;;
75894;SDS011;64573;50.328;15.014;2024-03-23T14:00:19;0.40;;;0.40;;
75894;SDS011;64573;50.328;15.014;2024-03-23T14:02:45;0.40;;;0.40;;
75894;SDS011;64573;50.328;15.014;2024-03-23T14:05:11;0.20;;;0.20;;
75894;SDS011;64573;50.328;15.014;2024-03-23T14:07:36;0.30;;;0.30;;
75894;SDS011;64573;50.328;15.014;2024-03-23T14:10:03;0.30;;;0.20;;
75894;SDS011;64573;50.328;15.014;2024-03-23T14:12:29;0.77;;;0.20;;
75894;SDS011;64573;50.328;15.014;2024-03-23T14:14:55;0.30;;;0.30;;
75894;SDS011;64573;50.328;15.014;2024-03-23T14:17:20;0.22;;;0.22;;
75894;SDS011;64573;50.328;15.014;2024-03-23T14:19:45;0.35;;;0.30;;
75894;SDS011;64573;50.328;15.014;2024-03-23T14:22:11;0.30;;;0.30;;
75894;SDS011;64573;50.328;15.014;2024-03-23T14:24:36;1.55;;;0.30;;
75894;SDS011;64573;50.328;15.014;2024-03-23T14:27:02;0.68;;;0.38;;
75894;SDS011;64573;50.328;15.014;2024-03-23T14:29:30;0.30;;;0.30;;
75894;SDS011;64573;50.328;15.014;2024-03-23T14:31:56;1.63;;;0.50;;
75894;SDS011;64573;50.328;15.014;2024-03-23T14:34:22;0.40;;;0.40;;
75894;SDS011;64573;50.328;15.014;2024-03-23T14:36:47;0.88;;;0.30;;
75894;SDS011;64573;50.328;15.014;2024-03-23T14:39:12;0.30;;;0.30;;
75894;SDS011;64573;50.328;15.014;2024-03-23T14:41:38;0.32;;;0.32;;
75894;SDS011;64573;50.328;15.014;2024-03-23T14:44:03;0.40;;;0.40;;
75894;SDS011;64573;50.328;15.014;2024-03-23T14:46:29;0.47;;;0.40;;
75894;SDS011;64573;50.328;15.014;2024-03-23T14:48:57;0.32;;;0.30;;
75894;SDS011;64573;50.328;15.014;2024-03-23T14:51:23;0.47;;;0.40;;
75894;SDS011;64573;50.328;15.014;2024-03-23T14:53:48;0.57;;;0.35;;
75894;SDS011;64573;50.328;15.014;2024-03-23T14:56:13;0.40;;;0.35;;
75894;SDS011;64573;50.328;15.014;2024-03-23T14:58:40;0.30;;;0.30;;
75894;SDS011;64573;50.328;15.014;2024-03-23T15:01:06;0.25;;;0.25;;
75894;SDS011;64573;50.328;15.014;2024-03-23T15:03:38;0.77;;;0.52;;
75894;SDS011;64573;50.328;15.014;2024-03-23T15:06:04;0.45;;;0.35;;
75894;SDS011;64573;50.328;15.014;2024-03-23T15:08:30;0.40;;;0.40;;
75894;SDS011;64573;50.328;15.014;2024-03-23T15:10:59;0.40;;;0.40;;
75894;SDS011;64573;50.328;15.014;2024-03-23T15:13:25;0.60;;;0.50;;
75894;SDS011;64573;50.328;15.014;2024-03-23T15:15:51;0.50;;;0.50;;
75894;SDS011;64573;50.328;15.014;2024-03-23T15:18:17;0.40;;;0.40;;
75894;SDS011;64573;50.328;15.014;2024-03-23T15:21:00;0.40;;;0.40;;
75894;SDS011;64573;50.328;15.014;2024-03-23T15:23:36;0.50;;;0.50;;
75894;SDS011;64573;50.328;15.014;2024-03-23T15:26:02;0.50;;;0.50;;
75894;SDS011;64573;50.328;15.014;2024-03-23T15:28:29;0.50;;;0.50;;
75894;SDS011;64573;50.328;15.014;2024-03-23T15:31:27;0.52;;;0.50;;
75894;SDS011;64573;50.328;15.014;2024-03-23T15:33:52;0.50;;;0.50;;
75894;SDS011;64573;50.328;15.014;2024-03-23T15:36:18;0.40;;;0.40;;